Time;durP1;ratioP1;P1;durP2;ratioP2;P2;SDS_P1;SDS_P2;PMS_P1;PMS_P2;Temp;Humidity;BMP_temperature;BMP_pressure;BME280_temperature;BME280_humidity;BME280_pressure;Samples;Min_cycle;Max_cycle;Signal;HPM_P1;HPM_P2
2021/10/15 00:00:59;;;;;;;3.27;2.40;;;;;;;;;;4433207;32;20727;-54
2021/10/15 00:03:24;;;;;;;2.30;2.10;;;;;;;;;;4435600;32;20292;-54
2021/10/15 00:05:50;;;;;;;3.07;2.47;;;;;;;;;;4434502;32;20307;-58
2021/10/15 00:08:15;;;;;;;3.03;2.33;;;;;;;;;;4450230;32;20333;-53
2021/10/15 00:10:41;;;;;;;4.57;2.77;;;;;;;;;;4446696;32;20789;-56
2021/10/15 00:13:06;;;;;;;4.37;2.37;;;;;;;;;;4431328;32;20515;-54
2021/10/15 00:15:32;;;;;;;5.30;2.70;;;;;;;;;;4433581;32;20354;-54
2021/10/15 00:17:57;;;;;;;4.67;2.90;;;;;;;;;;4426732;32;20213;-55
2021/10/15 00:20:22;;;;;;;4.30;2.20;;;;;;;;;;4434688;32;20355;-54
2021/10/15 00:22:48;;;;;;;2.03;1.40;;;;;;;;;;4433439;32;20303;-54
2021/10/15 00:25:13;;;;;;;2.80;1.57;;;;;;;;;;4434850;32;20301;-54
2021/10/15 00:27:39;;;;;;;2.70;1.53;;;;;;;;;;4433560;32;20289;-53
2021/10/15 00:30:05;;;;;;;1.83;1.30;;;;;;;;;;4434984;32;20335;-54
2021/10/15 00:32:30;;;;;;;2.70;1.53;;;;;;;;;;4434281;32;20251;-54
2021/10/15 00:34:56;;;;;;;1.20;1.10;;;;;;;;;;4434739;32;20276;-56
2021/10/15 00:37:21;;;;;;;2.67;1.93;;;;;;;;;;4433207;32;20357;-54
2021/10/15 00:39:47;;;;;;;2.53;1.70;;;;;;;;;;4434650;32;20336;-54
2021/10/15 00:42:12;;;;;;;1.93;1.67;;;;;;;;;;4434042;32;20300;-54
2021/10/15 00:44:38;;;;;;;3.70;1.80;;;;;;;;;;4433478;32;20272;-54
2021/10/15 00:47:05;;;;;;;1.67;1.30;;;;;;;;;;4434171;32;20227;-55
2021/10/15 00:49:30;;;;;;;2.00;1.53;;;;;;;;;;4434735;32;20264;-55
2021/10/15 00:51:56;;;;;;;2.17;1.60;;;;;;;;;;4433896;32;20609;-54
2021/10/15 00:54:21;;;;;;;1.80;1.47;;;;;;;;;;4434375;32;20753;-54
2021/10/15 00:56:47;;;;;;;3.17;2.23;;;;;;;;;;4434379;32;20220;-54
2021/10/15 00:59:14;;;;;;;2.27;1.80;;;;;;;;;;4433237;32;20783;-55
2021/10/15 01:01:39;;;;;;;3.47;2.00;;;;;;;;;;4433230;32;20698;-55
2021/10/15 01:04:06;;;;;;;4.40;1.77;;;;;;;;;;4434640;32;20396;-55
2021/10/15 01:06:32;;;;;;;3.03;1.50;;;;;;;;;;4437980;32;20313;-55
2021/10/15 01:08:58;;;;;;;1.60;1.30;;;;;;;;;;4449686;32;20272;-54
2021/10/15 01:11:24;;;;;;;1.43;1.30;;;;;;;;;;4434865;32;20679;-54
2021/10/15 01:13:50;;;;;;;7.03;1.60;;;;;;;;;;4433974;32;20302;-55
2021/10/15 01:16:16;;;;;;;1.43;1.30;;;;;;;;;;4434237;32;20580;-54
2021/10/15 01:18:43;;;;;;;1.80;1.67;;;;;;;;;;4434324;32;20587;-55
2021/10/15 01:21:10;;;;;;;1.50;1.40;;;;;;;;;;4432373;32;20328;-54
2021/10/15 01:23:37;;;;;;;2.33;1.80;;;;;;;;;;4433688;32;20216;-54
2021/10/15 01:26:04;;;;;;;1.70;1.50;;;;;;;;;;4432592;32;20270;-53
2021/10/15 01:28:31;;;;;;;3.03;1.73;;;;;;;;;;4434664;32;20196;-54
2021/10/15 01:30:57;;;;;;;3.73;1.70;;;;;;;;;;4434350;32;20564;-53
2021/10/15 01:33:23;;;;;;;3.40;1.80;;;;;;;;;;4434138;32;20280;-53
2021/10/15 01:35:49;;;;;;;1.30;1.20;;;;;;;;;;4433680;32;20288;-53
2021/10/15 01:38:15;;;;;;;1.90;1.50;;;;;;;;;;4434469;32;20334;-53
2021/10/15 01:40:41;;;;;;;1.90;1.30;;;;;;;;;;4434254;32;20275;-54
2021/10/15 01:43:07;;;;;;;1.83;1.37;;;;;;;;;;4433560;32;20331;-53
2021/10/15 01:45:33;;;;;;;1.60;1.40;;;;;;;;;;4434562;32;20727;-55
2021/10/15 01:48:00;;;;;;;2.60;1.57;;;;;;;;;;4434590;32;20241;-53
2021/10/15 01:50:27;;;;;;;2.37;1.30;;;;;;;;;;4435695;32;20204;-53
2021/10/15 01:52:53;;;;;;;1.37;1.20;;;;;;;;;;4435808;32;20300;-53
2021/10/15 01:55:19;;;;;;;2.80;1.90;;;;;;;;;;4435446;32;20398;-54
2021/10/15 01:57:44;;;;;;;5.17;1.70;;;;;;;;;;4436520;32;20213;-54
2021/10/15 02:00:12;;;;;;;4.23;2.20;;;;;;;;;;4436851;32;20716;-54
2021/10/15 02:02:38;;;;;;;4.00;1.93;;;;;;;;;;4436119;32;20236;-54
2021/10/15 02:05:06;;;;;;;3.23;1.37;;;;;;;;;;4436400;32;20653;-54
2021/10/15 02:07:32;;;;;;;2.13;1.53;;;;;;;;;;4446668;32;20359;-53
2021/10/15 02:09:57;;;;;;;3.30;1.90;;;;;;;;;;4450903;32;20797;-52
2021/10/15 02:12:22;;;;;;;2.57;1.50;;;;;;;;;;4439381;32;20236;-53
2021/10/15 02:14:48;;;;;;;1.90;1.57;;;;;;;;;;4436800;32;20279;-53
2021/10/15 02:17:14;;;;;;;2.33;1.63;;;;;;;;;;4436451;32;20245;-53
2021/10/15 02:19:39;;;;;;;2.17;1.97;;;;;;;;;;4436644;32;20319;-54
2021/10/15 02:22:05;;;;;;;2.27;1.80;;;;;;;;;;4435837;32;20240;-53
2021/10/15 02:24:30;;;;;;;2.97;1.67;;;;;;;;;;4436128;32;20300;-53
2021/10/15 02:26:56;;;;;;;3.10;1.90;;;;;;;;;;4436273;32;20765;-53
2021/10/15 02:29:21;;;;;;;1.50;1.30;;;;;;;;;;4436717;32;20330;-53
2021/10/15 02:31:47;;;;;;;3.07;1.70;;;;;;;;;;4436345;32;20281;-54
2021/10/15 02:34:13;;;;;;;2.13;1.67;;;;;;;;;;4436561;32;20283;-54
2021/10/15 02:36:38;;;;;;;3.50;1.97;;;;;;;;;;4435961;32;20655;-53
2021/10/15 02:39:04;;;;;;;2.80;1.97;;;;;;;;;;4436260;32;20845;-53
2021/10/15 02:41:30;;;;;;;3.57;1.40;;;;;;;;;;4436424;32;20305;-53
2021/10/15 02:43:55;;;;;;;2.33;2.00;;;;;;;;;;4436310;32;20310;-53
2021/10/15 02:46:21;;;;;;;4.47;1.63;;;;;;;;;;4435560;32;20250;-53
2021/10/15 02:48:46;;;;;;;1.93;1.60;;;;;;;;;;4436284;32;20284;-53
2021/10/15 02:51:12;;;;;;;2.03;1.47;;;;;;;;;;4435946;32;20637;-53
2021/10/15 02:53:38;;;;;;;1.30;1.20;;;;;;;;;;4436006;32;20365;-54
2021/10/15 02:56:05;;;;;;;1.80;1.47;;;;;;;;;;4435453;32;20288;-53
2021/10/15 02:58:30;;;;;;;3.27;1.27;;;;;;;;;;4436154;32;20662;-54
2021/10/15 03:00:56;;;;;;;1.93;1.33;;;;;;;;;;4435720;32;20276;-54
2021/10/15 03:03:22;;;;;;;1.53;1.43;;;;;;;;;;4436052;32;20655;-54
2021/10/15 03:05:48;;;;;;;4.50;2.07;;;;;;;;;;4435573;32;20284;-54
2021/10/15 03:08:13;;;;;;;3.23;2.20;;;;;;;;;;4450498;32;20311;-53
2021/10/15 03:10:39;;;;;;;2.30;1.63;;;;;;;;;;4449799;32;20288;-55
2021/10/15 03:13:04;;;;;;;3.70;1.80;;;;;;;;;;4435531;32;20240;-53
2021/10/15 03:15:30;;;;;;;2.50;1.70;;;;;;;;;;4435965;32;20309;-53
2021/10/15 03:17:55;;;;;;;1.83;1.50;;;;;;;;;;4435035;32;20267;-53
2021/10/15 03:20:21;;;;;;;1.47;1.30;;;;;;;;;;4436076;32;20758;-53
2021/10/15 03:22:47;;;;;;;1.67;1.57;;;;;;;;;;4434946;32;20244;-53
2021/10/15 03:25:12;;;;;;;2.40;1.50;;;;;;;;;;4434746;32;20767;-55
2021/10/15 03:27:38;;;;;;;2.40;1.73;;;;;;;;;;4435359;32;20284;-53
2021/10/15 03:30:05;;;;;;;4.40;2.33;;;;;;;;;;4435622;32;20318;-54
2021/10/15 03:32:31;;;;;;;3.30;1.77;;;;;;;;;;4435217;32;20229;-53
2021/10/15 03:34:56;;;;;;;2.20;1.87;;;;;;;;;;4435789;32;20280;-54
2021/10/15 03:37:23;;;;;;;2.83;2.10;;;;;;;;;;4434717;32;20304;-53
2021/10/15 03:39:52;;;;;;;2.00;1.50;;;;;;;;;;4435286;32;20204;-54
2021/10/15 03:42:17;;;;;;;1.37;1.27;;;;;;;;;;4433604;32;20256;-55
2021/10/15 03:44:43;;;;;;;1.80;1.70;;;;;;;;;;4436032;32;20300;-55
2021/10/15 03:47:08;;;;;;;3.37;2.33;;;;;;;;;;4434546;32;20294;-55
2021/10/15 03:49:34;;;;;;;4.57;2.63;;;;;;;;;;4435554;32;20264;-54
2021/10/15 03:51:59;;;;;;;2.47;1.77;;;;;;;;;;4433529;32;20221;-53
2021/10/15 03:54:25;;;;;;;2.37;1.70;;;;;;;;;;4435491;32;20336;-53
2021/10/15 03:56:50;;;;;;;1.37;1.27;;;;;;;;;;4433688;32;20263;-54
2021/10/15 03:59:16;;;;;;;1.47;1.30;;;;;;;;;;4433612;32;20334;-54
2021/10/15 04:01:41;;;;;;;1.53;1.40;;;;;;;;;;4434316;32;20361;-53
2021/10/15 04:04:07;;;;;;;1.40;1.30;;;;;;;;;;4435625;32;20310;-55
2021/10/15 04:06:32;;;;;;;3.27;1.60;;;;;;;;;;4434979;32;20312;-54
2021/10/15 04:08:58;;;;;;;2.97;1.80;;;;;;;;;;4434623;32;20676;-54
2021/10/15 04:11:23;;;;;;;3.30;2.40;;;;;;;;;;4432892;32;20274;-54
2021/10/15 04:13:48;;;;;;;3.87;2.30;;;;;;;;;;4419569;32;20401;-55
2021/10/15 04:16:14;;;;;;;3.47;2.10;;;;;;;;;;4424915;32;20255;-54
2021/10/15 04:18:40;;;;;;;2.97;2.53;;;;;;;;;;4434705;32;20303;-55
2021/10/15 04:21:06;;;;;;;2.53;1.60;;;;;;;;;;4433582;32;20605;-54
2021/10/15 04:23:31;;;;;;;3.17;2.07;;;;;;;;;;4433430;32;20337;-56
2021/10/15 04:25:57;;;;;;;2.93;1.90;;;;;;;;;;4431931;32;20279;-55
2021/10/15 04:28:22;;;;;;;2.07;1.50;;;;;;;;;;4430970;32;20738;-55
2021/10/15 04:30:47;;;;;;;2.90;1.97;;;;;;;;;;4432402;32;20735;-55
2021/10/15 04:33:13;;;;;;;1.93;1.60;;;;;;;;;;4432495;32;20276;-55
2021/10/15 04:35:39;;;;;;;2.33;1.97;;;;;;;;;;4431922;32;20824;-54
2021/10/15 04:38:04;;;;;;;6.70;3.27;;;;;;;;;;4431870;32;20319;-53
2021/10/15 04:40:30;;;;;;;2.93;1.90;;;;;;;;;;4431606;32;20314;-53
2021/10/15 04:42:55;;;;;;;2.23;1.70;;;;;;;;;;4431671;32;20320;-53
2021/10/15 04:45:20;;;;;;;3.73;1.90;;;;;;;;;;4432416;32;20268;-53
2021/10/15 04:47:46;;;;;;;3.27;2.37;;;;;;;;;;4431734;32;20221;-55
2021/10/15 04:50:11;;;;;;;2.57;2.37;;;;;;;;;;4430903;32;20408;-53
2021/10/15 04:52:37;;;;;;;8.67;4.30;;;;;;;;;;4432068;32;20247;-54
2021/10/15 04:55:03;;;;;;;6.63;4.20;;;;;;;;;;4430976;32;20288;-55
2021/10/15 04:57:28;;;;;;;7.73;4.70;;;;;;;;;;4431992;32;20335;-54
2021/10/15 04:59:54;;;;;;;7.43;4.63;;;;;;;;;;4431528;32;20287;-54
2021/10/15 05:02:19;;;;;;;9.90;6.33;;;;;;;;;;4431165;32;20626;-54
2021/10/15 05:04:45;;;;;;;7.70;3.93;;;;;;;;;;4432243;32;20333;-55
2021/10/15 05:07:10;;;;;;;5.33;3.23;;;;;;;;;;4431403;32;20299;-54
2021/10/15 05:09:36;;;;;;;6.00;4.50;;;;;;;;;;4431994;32;20302;-54
2021/10/15 05:12:05;;;;;;;8.13;4.00;;;;;;;;;;4432099;32;20330;-54
2021/10/15 05:14:34;;;;;;;11.40;4.20;;;;;;;;;;4432120;32;20338;-55
2021/10/15 05:17:01;;;;;;;5.63;3.60;;;;;;;;;;4431804;32;20320;-54
2021/10/15 05:19:27;;;;;;;6.20;4.27;;;;;;;;;;4432100;32;20192;-54
2021/10/15 05:21:52;;;;;;;5.27;3.90;;;;;;;;;;4431121;32;20341;-54
2021/10/15 05:24:18;;;;;;;6.00;3.70;;;;;;;;;;4430030;32;20360;-54
2021/10/15 05:26:43;;;;;;;6.90;3.60;;;;;;;;;;4431622;32;20225;-53
2021/10/15 05:29:09;;;;;;;4.23;3.20;;;;;;;;;;4435231;32;20718;-53
2021/10/15 05:31:34;;;;;;;12.90;3.17;;;;;;;;;;4433809;32;20249;-53
2021/10/15 05:33:59;;;;;;;6.67;3.37;;;;;;;;;;4432971;32;20237;-54
2021/10/15 05:36:25;;;;;;;4.70;3.10;;;;;;;;;;4432173;32;20331;-54
2021/10/15 05:38:50;;;;;;;7.40;4.83;;;;;;;;;;4432521;32;20626;-53
2021/10/15 05:41:16;;;;;;;9.20;4.57;;;;;;;;;;4433842;32;20542;-53
2021/10/15 05:43:41;;;;;;;5.87;3.60;;;;;;;;;;4432898;32;20348;-53
2021/10/15 05:46:07;;;;;;;5.43;3.10;;;;;;;;;;4431168;32;21754;-53
2021/10/15 05:48:32;;;;;;;4.63;3.40;;;;;;;;;;4432961;32;20291;-54
2021/10/15 05:50:58;;;;;;;5.47;3.83;;;;;;;;;;4431246;32;20359;-54
2021/10/15 05:53:25;;;;;;;4.63;3.17;;;;;;;;;;4412935;32;20347;-55
2021/10/15 05:58:50;;;;;;;6.33;4.40;;;;;;;;;;4432096;32;20382;-53
2021/10/15 06:01:22;;;;;;;11.40;4.73;;;;;;;;;;4429702;32;20333;-53
2021/10/15 06:03:59;;;;;;;6.83;4.10;;;;;;;;;;4430820;32;20233;-55
2021/10/15 06:14:31;;;;;;;4.27;2.93;;;;;;;;;;4425794;32;20227;-55
2021/10/15 06:17:04;;;;;;;6.53;3.83;;;;;;;;;;4428819;32;20318;-54
2021/10/15 06:19:30;;;;;;;10.00;5.40;;;;;;;;;;4432388;32;20579;-56
2021/10/15 06:21:56;;;;;;;8.20;5.33;;;;;;;;;;4433439;32;20292;-55
2021/10/15 06:24:21;;;;;;;10.23;6.47;;;;;;;;;;4434704;32;20936;-55
2021/10/15 06:26:47;;;;;;;8.90;5.57;;;;;;;;;;4433772;32;20309;-56
2021/10/15 06:29:12;;;;;;;9.23;5.70;;;;;;;;;;4434319;32;20317;-56
2021/10/15 06:31:38;;;;;;;13.97;8.80;;;;;;;;;;4433882;32;20251;-55
2021/10/15 06:34:04;;;;;;;23.00;9.70;;;;;;;;;;4433234;32;20283;-55
2021/10/15 06:36:29;;;;;;;9.77;5.93;;;;;;;;;;4433527;32;20266;-55
2021/10/15 06:38:55;;;;;;;12.03;4.43;;;;;;;;;;4433977;32;20350;-56
2021/10/15 06:41:21;;;;;;;5.60;3.67;;;;;;;;;;4432449;32;20220;-55
2021/10/15 06:43:46;;;;;;;6.80;3.70;;;;;;;;;;4433616;32;20347;-58
2021/10/15 06:46:12;;;;;;;9.03;5.97;;;;;;;;;;4433592;32;20656;-55
2021/10/15 06:48:39;;;;;;;10.13;6.33;;;;;;;;;;4432901;32;20366;-55
2021/10/15 06:51:04;;;;;;;9.03;5.83;;;;;;;;;;4432995;32;20306;-55
2021/10/15 06:53:29;;;;;;;9.37;5.77;;;;;;;;;;4433291;32;20348;-55
2021/10/15 06:55:55;;;;;;;7.00;4.87;;;;;;;;;;4433830;32;20619;-56
2021/10/15 06:58:20;;;;;;;12.27;6.43;;;;;;;;;;4433906;32;20418;-55
2021/10/15 07:00:47;;;;;;;10.50;5.93;;;;;;;;;;4422139;32;20868;-55
2021/10/15 07:03:16;;;;;;;6.53;4.30;;;;;;;;;;4432295;32;20403;-56
2021/10/15 07:05:42;;;;;;;14.90;6.17;;;;;;;;;;4432746;32;20326;-55
2021/10/15 07:08:08;;;;;;;9.60;5.93;;;;;;;;;;4434489;32;20288;-56
2021/10/15 07:10:33;;;;;;;10.87;4.40;;;;;;;;;;4429326;32;20619;-57
2021/10/15 07:12:59;;;;;;;6.47;4.63;;;;;;;;;;4432886;32;20308;-55
2021/10/15 07:15:24;;;;;;;12.37;8.70;;;;;;;;;;4432553;32;20248;-55
2021/10/15 07:17:50;;;;;;;8.40;5.93;;;;;;;;;;4430670;32;20229;-54
2021/10/15 07:20:15;;;;;;;6.67;3.57;;;;;;;;;;4420951;32;20383;-54
2021/10/15 07:22:41;;;;;;;6.80;4.37;;;;;;;;;;4430518;32;20237;-55
2021/10/15 07:25:08;;;;;;;6.03;3.13;;;;;;;;;;4431533;32;20669;-56
2021/10/15 07:27:35;;;;;;;7.90;4.63;;;;;;;;;;4431137;32;20324;-55
2021/10/15 07:30:01;;;;;;;11.67;6.13;;;;;;;;;;4418393;32;20299;-56
2021/10/15 07:32:27;;;;;;;14.03;6.93;;;;;;;;;;4431481;32;20308;-54
2021/10/15 07:34:52;;;;;;;7.10;5.07;;;;;;;;;;4430730;32;20407;-55
2021/10/15 07:37:18;;;;;;;7.53;4.13;;;;;;;;;;4431972;32;20287;-55
2021/10/15 07:39:43;;;;;;;9.03;5.03;;;;;;;;;;4426160;32;20359;-56
2021/10/15 07:42:09;;;;;;;7.60;4.37;;;;;;;;;;4427648;32;20339;-55
2021/10/15 07:44:34;;;;;;;9.70;5.50;;;;;;;;;;4432604;32;20322;-56
2021/10/15 07:46:59;;;;;;;10.37;6.43;;;;;;;;;;4431794;32;20740;-55
2021/10/15 07:49:25;;;;;;;14.63;5.97;;;;;;;;;;4431217;32;20283;-56
2021/10/15 07:51:52;;;;;;;16.80;9.23;;;;;;;;;;4429913;32;20262;-56
2021/10/15 07:54:17;;;;;;;15.17;8.93;;;;;;;;;;4418026;32;20275;-54
2021/10/15 07:56:43;;;;;;;17.23;8.67;;;;;;;;;;4421146;32;20633;-55
2021/10/15 07:59:08;;;;;;;12.77;8.43;;;;;;;;;;4431512;32;20371;-55
2021/10/15 08:01:34;;;;;;;20.20;10.10;;;;;;;;;;4431661;32;20217;-56
2021/10/15 08:03:59;;;;;;;24.03;11.57;;;;;;;;;;4431304;32;20271;-55
2021/10/15 08:06:26;;;;;;;23.07;14.53;;;;;;;;;;4425248;32;20236;-55
2021/10/15 08:08:51;;;;;;;18.03;11.67;;;;;;;;;;4441208;32;20422;-56
2021/10/15 08:11:18;;;;;;;13.97;8.03;;;;;;;;;;4426631;32;20255;-55
2021/10/15 08:13:44;;;;;;;14.30;8.13;;;;;;;;;;4432071;32;20254;-56
2021/10/15 08:16:10;;;;;;;12.90;7.37;;;;;;;;;;4421603;32;20260;-55
2021/10/15 08:18:35;;;;;;;14.47;7.40;;;;;;;;;;4432392;32;20352;-55
2021/10/15 08:21:01;;;;;;;13.73;7.87;;;;;;;;;;4427347;32;20295;-55
2021/10/15 08:23:28;;;;;;;14.83;8.03;;;;;;;;;;4432719;32;20343;-55
2021/10/15 08:25:55;;;;;;;20.63;12.27;;;;;;;;;;4418407;32;20244;-54
2021/10/15 08:28:22;;;;;;;24.97;11.17;;;;;;;;;;4431037;32;20657;-55
2021/10/15 08:30:47;;;;;;;15.63;9.33;;;;;;;;;;4424139;32;20336;-54
2021/10/15 08:33:13;;;;;;;17.80;8.43;;;;;;;;;;4432394;32;20326;-55
2021/10/15 08:35:38;;;;;;;13.93;8.20;;;;;;;;;;4421159;32;20325;-55
2021/10/15 08:38:04;;;;;;;9.47;7.03;;;;;;;;;;4430624;32;20319;-55
2021/10/15 08:40:30;;;;;;;17.37;10.60;;;;;;;;;;4424282;32;20338;-56
2021/10/15 08:42:56;;;;;;;16.30;11.43;;;;;;;;;;4426242;32;20232;-56
2021/10/15 08:45:29;;;;;;;9.60;6.23;;;;;;;;;;4425501;32;20358;-54
2021/10/15 08:47:55;;;;;;;16.33;9.57;;;;;;;;;;4421860;32;20286;-55
2021/10/15 08:50:21;;;;;;;16.73;9.27;;;;;;;;;;4423899;32;20296;-55
2021/10/15 08:52:47;;;;;;;13.20;8.97;;;;;;;;;;4430233;32;20669;-54
2021/10/15 08:55:13;;;;;;;29.13;13.47;;;;;;;;;;4422888;32;20292;-57
2021/10/15 08:57:39;;;;;;;22.50;12.23;;;;;;;;;;4429577;32;20251;-54
2021/10/15 09:00:29;;;;;;;25.90;13.33;;;;;;;;;;4427229;32;20343;-55
2021/10/15 09:03:13;;;;;;;18.43;12.20;;;;;;;;;;4425654;32;20257;-55
2021/10/15 09:05:40;;;;;;;33.57;18.63;;;;;;;;;;4430288;32;20208;-54
2021/10/15 09:08:06;;;;;;;27.33;16.53;;;;;;;;;;4441771;32;20502;-55
2021/10/15 09:10:32;;;;;;;21.40;13.67;;;;;;;;;;4426474;32;20350;-57
2021/10/15 09:13:09;;;;;;;19.87;9.37;;;;;;;;;;4425446;32;20269;-54
2021/10/15 09:15:35;;;;;;;18.73;10.73;;;;;;;;;;4421447;32;20217;-55
2021/10/15 09:18:18;;;;;;;19.67;11.53;;;;;;;;;;4430922;32;20297;-56
2021/10/15 09:20:45;;;;;;;22.53;12.10;;;;;;;;;;4431430;32;20233;-55
2021/10/15 09:23:12;;;;;;;19.13;10.97;;;;;;;;;;4431256;32;20331;-55
2021/10/15 09:25:43;;;;;;;14.40;9.17;;;;;;;;;;4430617;32;20258;-55
2021/10/15 09:28:15;;;;;;;12.50;6.17;;;;;;;;;;4418435;32;20688;-55
2021/10/15 09:30:42;;;;;;;14.40;8.70;;;;;;;;;;4430932;32;20228;-56
2021/10/15 09:33:07;;;;;;;18.13;11.73;;;;;;;;;;4422961;32;20259;-56
2021/10/15 09:35:33;;;;;;;18.03;11.93;;;;;;;;;;4426559;32;20726;-57
2021/10/15 09:38:02;;;;;;;22.80;13.07;;;;;;;;;;4418110;32;20244;-55
2021/10/15 09:40:42;;;;;;;18.33;11.40;;;;;;;;;;4431284;32;20217;-55
2021/10/15 09:43:09;;;;;;;19.17;11.77;;;;;;;;;;4422864;32;20232;-54
2021/10/15 09:45:45;;;;;;;28.17;14.93;;;;;;;;;;4426786;32;20217;-55
2021/10/15 09:48:26;;;;;;;33.07;16.40;;;;;;;;;;4417229;32;20373;-55
2021/10/15 09:51:12;;;;;;;20.17;12.40;;;;;;;;;;4430538;32;20200;-56
2021/10/15 09:53:39;;;;;;;17.23;9.53;;;;;;;;;;4427062;32;20208;-55
2021/10/15 09:56:06;;;;;;;16.03;9.93;;;;;;;;;;4429357;32;20216;-55
2021/10/15 09:58:32;;;;;;;19.83;12.73;;;;;;;;;;4420278;32;20300;-55
2021/10/15 10:00:58;;;;;;;29.43;18.17;;;;;;;;;;4429131;32;20301;-55
2021/10/15 10:03:26;;;;;;;34.40;20.20;;;;;;;;;;4430928;32;20217;-56
2021/10/15 10:05:52;;;;;;;45.03;24.80;;;;;;;;;;4430154;32;20240;-54
2021/10/15 10:08:18;;;;;;;59.90;40.93;;;;;;;;;;4442972;32;20358;-56
2021/10/15 10:10:45;;;;;;;43.80;28.60;;;;;;;;;;4432754;32;20268;-56
2021/10/15 10:13:12;;;;;;;42.77;25.10;;;;;;;;;;4433033;32;20317;-56
2021/10/15 10:15:41;;;;;;;34.10;21.07;;;;;;;;;;4432887;32;20233;-55
2021/10/15 10:21:17;;;;;;;37.43;22.90;;;;;;;;;;4432357;32;20241;-55
2021/10/15 10:24:09;;;;;;;41.50;23.57;;;;;;;;;;4428292;32;20339;-55
2021/10/15 10:26:49;;;;;;;28.83;19.40;;;;;;;;;;4416201;32;20314;-54
2021/10/15 10:29:15;;;;;;;32.40;18.47;;;;;;;;;;4424113;32;20620;-55
2021/10/15 10:31:41;;;;;;;34.07;20.23;;;;;;;;;;4425224;32;20317;-55
2021/10/15 10:34:09;;;;;;;29.13;17.03;;;;;;;;;;4431555;32;20591;-56
2021/10/15 10:36:37;;;;;;;22.40;14.47;;;;;;;;;;4432764;32;20239;-54
2021/10/15 10:39:18;;;;;;;26.33;14.83;;;;;;;;;;4425503;32;20296;-55
2021/10/15 10:42:11;;;;;;;24.53;14.50;;;;;;;;;;4428094;32;20228;-55
2021/10/15 10:44:59;;;;;;;22.20;13.90;;;;;;;;;;4421638;32;20287;-55
2021/10/15 10:47:26;;;;;;;24.93;12.30;;;;;;;;;;4418620;32;20249;-55
2021/10/15 10:50:05;;;;;;;23.80;13.50;;;;;;;;;;4430350;32;20272;-56
2021/10/15 10:52:31;;;;;;;25.17;13.53;;;;;;;;;;4425913;32;20241;-56
2021/10/15 10:54:57;;;;;;;18.33;10.87;;;;;;;;;;4433085;32;20276;-56
2021/10/15 10:57:27;;;;;;;21.50;10.50;;;;;;;;;;4430059;32;20495;-55
2021/10/15 11:00:13;;;;;;;16.13;10.13;;;;;;;;;;4420538;32;20633;-56
2021/10/15 11:02:47;;;;;;;17.80;9.23;;;;;;;;;;4431075;32;20275;-54
2021/10/15 11:05:12;;;;;;;19.77;10.63;;;;;;;;;;4432738;32;20367;-55
2021/10/15 11:07:39;;;;;;;18.87;11.40;;;;;;;;;;4431792;32;20220;-56
2021/10/15 11:10:19;;;;;;;28.07;16.37;;;;;;;;;;4418563;32;20341;-55
2021/10/15 11:12:44;;;;;;;22.00;16.20;;;;;;;;;;4431393;32;20693;-55
2021/10/15 11:15:11;;;;;;;23.57;15.17;;;;;;;;;;4433506;32;20291;-54
2021/10/15 11:17:38;;;;;;;23.60;14.97;;;;;;;;;;4432412;32;20248;-55
2021/10/15 11:20:10;;;;;;;33.70;15.40;;;;;;;;;;4432775;32;20284;-55
2021/10/15 11:22:37;;;;;;;15.60;11.13;;;;;;;;;;4426085;32;20225;-55
2021/10/15 11:25:05;;;;;;;18.30;9.80;;;;;;;;;;4433194;32;20326;-56
2021/10/15 11:27:31;;;;;;;12.30;7.87;;;;;;;;;;4432406;32;20358;-56
2021/10/15 11:29:58;;;;;;;24.00;14.60;;;;;;;;;;4419915;32;20296;-55
2021/10/15 11:32:33;;;;;;;18.50;13.57;;;;;;;;;;4425845;32;20257;-54
2021/10/15 11:35:09;;;;;;;35.17;20.87;;;;;;;;;;4432421;32;20208;-55
2021/10/15 11:37:42;;;;;;;36.60;23.10;;;;;;;;;;4432180;32;20280;-54
2021/10/15 11:40:14;;;;;;;40.23;24.00;;;;;;;;;;4420200;32;20708;-55
2021/10/15 11:42:39;;;;;;;47.20;25.20;;;;;;;;;;4426695;32;20240;-55
2021/10/15 11:45:24;;;;;;;44.20;22.50;;;;;;;;;;4424957;32;20346;-56
2021/10/15 11:48:00;;;;;;;58.50;28.63;;;;;;;;;;4431782;32;20241;-56
2021/10/15 11:50:32;;;;;;;32.43;20.37;;;;;;;;;;4421018;32;20209;-56
2021/10/15 11:52:58;;;;;;;30.63;17.03;;;;;;;;;;4421927;32;20261;-55
2021/10/15 11:55:31;;;;;;;36.87;20.70;;;;;;;;;;4425998;32;20320;-57
2021/10/15 11:58:16;;;;;;;36.27;20.97;;;;;;;;;;4413906;32;20693;-55
2021/10/15 12:01:03;;;;;;;36.97;22.07;;;;;;;;;;4430850;32;20312;-57
2021/10/15 12:03:40;;;;;;;49.73;29.67;;;;;;;;;;4425962;32;20249;-56
2021/10/15 12:06:33;;;;;;;42.67;24.67;;;;;;;;;;4430402;32;20216;-55
2021/10/15 12:09:10;;;;;;;26.50;16.97;;;;;;;;;;4427703;32;20560;-56
2021/10/15 12:11:37;;;;;;;27.90;17.20;;;;;;;;;;4431043;32;20266;-55
2021/10/15 12:14:05;;;;;;;30.13;17.50;;;;;;;;;;4431783;32;20333;-56
2021/10/15 12:16:32;;;;;;;26.80;14.53;;;;;;;;;;4431607;32;20213;-55
2021/10/15 12:19:05;;;;;;;50.77;33.87;;;;;;;;;;4425577;32;20661;-55
2021/10/15 12:22:13;;;;;;;30.20;21.90;;;;;;;;;;4427744;32;20213;-56
2021/10/15 12:24:46;;;;;;;21.13;15.57;;;;;;;;;;4368919;32;20285;-55
2021/10/15 12:27:24;;;;;;;33.63;21.73;;;;;;;;;;4368308;32;20880;-55
2021/10/15 12:30:01;;;;;;;26.13;17.03;;;;;;;;;;4407770;32;20285;-55
2021/10/15 12:32:30;;;;;;;33.30;23.00;;;;;;;;;;4428534;32;20548;-55
2021/10/15 12:35:04;;;;;;;32.17;22.20;;;;;;;;;;4431844;32;20205;-55
2021/10/15 12:37:32;;;;;;;26.93;17.73;;;;;;;;;;4431878;32;20688;-55
2021/10/15 12:40:26;;;;;;;27.00;15.60;;;;;;;;;;4431902;32;20237;-55
2021/10/15 12:42:54;;;;;;;28.23;16.87;;;;;;;;;;4431318;32;20545;-54
2021/10/15 12:45:20;;;;;;;30.57;15.83;;;;;;;;;;4431879;32;20334;-56
2021/10/15 12:48:27;;;;;;;22.37;15.67;;;;;;;;;;4431406;32;20220;-55
2021/10/15 12:51:13;;;;;;;19.83;13.90;;;;;;;;;;4419481;32;20258;-55
2021/10/15 12:53:41;;;;;;;21.53;15.30;;;;;;;;;;4430511;32;20383;-54
2021/10/15 12:56:22;;;;;;;22.23;15.50;;;;;;;;;;4431004;32;20216;-55
2021/10/15 12:59:16;;;;;;;75.27;40.07;;;;;;;;;;4431630;32;20236;-55
2021/10/15 13:01:43;;;;;;;48.10;29.17;;;;;;;;;;4431113;32;20267;-55
2021/10/15 13:04:08;;;;;;;36.20;18.27;;;;;;;;;;4431765;32;20245;-56
2021/10/15 13:06:34;;;;;;;20.70;10.20;;;;;;;;;;4430836;32;20239;-55
2021/10/15 13:09:00;;;;;;;10.87;7.57;;;;;;;;;;4427636;32;20291;-55
2021/10/15 13:11:27;;;;;;;18.73;9.57;;;;;;;;;;4431493;32;20687;-55
2021/10/15 13:13:54;;;;;;;17.83;11.50;;;;;;;;;;4431384;32;20326;-55
2021/10/15 13:16:20;;;;;;;14.93;10.00;;;;;;;;;;4430092;32;20221;-55
2021/10/15 13:18:46;;;;;;;18.53;12.87;;;;;;;;;;4430981;32;20291;-56
2021/10/15 13:21:11;;;;;;;17.13;12.23;;;;;;;;;;4430892;32;20598;-55
2021/10/15 13:23:38;;;;;;;29.07;14.97;;;;;;;;;;4426436;32;20684;-56
2021/10/15 13:26:04;;;;;;;28.27;16.27;;;;;;;;;;4423476;32;20288;-55
2021/10/15 13:28:29;;;;;;;53.30;24.63;;;;;;;;;;4431676;32;20235;-56
2021/10/15 13:30:55;;;;;;;54.07;28.67;;;;;;;;;;4431726;32;20362;-55
2021/10/15 13:33:22;;;;;;;37.57;21.33;;;;;;;;;;4430929;32;20284;-55
2021/10/15 13:35:51;;;;;;;39.20;25.13;;;;;;;;;;4429906;32;20674;-56
2021/10/15 13:38:20;;;;;;;51.53;26.30;;;;;;;;;;4417299;32;20217;-54
2021/10/15 13:40:56;;;;;;;44.83;27.80;;;;;;;;;;4421680;32;20478;-55
2021/10/15 13:43:33;;;;;;;35.13;22.90;;;;;;;;;;4427194;32;20608;-56
2021/10/15 13:46:30;;;;;;;23.13;13.17;;;;;;;;;;4426851;32;20452;-55
2021/10/15 13:49:58;;;;;;;17.73;10.70;;;;;;;;;;4429645;32;20290;-55
2021/10/15 13:51:50;;;;;;;8.30;6.00;;;;;;;;;;4424127;32;20228;-56
2021/10/15 13:54:17;;;;;;;5.70;4.37;;;;;;;;;;4421090;32;20691;-54
2021/10/15 13:56:43;;;;;;;11.00;6.63;;;;;;;;;;4429489;32;20341;-55
2021/10/15 13:59:13;;;;;;;24.37;14.37;;;;;;;;;;4430721;32;20260;-55
2021/10/15 14:01:41;;;;;;;30.33;16.50;;;;;;;;;;4429881;32;20260;-55
2021/10/15 14:04:26;;;;;;;30.20;19.00;;;;;;;;;;4423347;32;20384;-55
2021/10/15 14:06:52;;;;;;;44.93;23.27;;;;;;;;;;4436527;32;20315;-55
2021/10/15 14:09:17;;;;;;;41.23;22.93;;;;;;;;;;4426188;32;20248;-56
2021/10/15 14:11:43;;;;;;;32.97;23.03;;;;;;;;;;4431098;32;20428;-56
2021/10/15 14:14:08;;;;;;;42.07;23.07;;;;;;;;;;4430156;32;20308;-55
2021/10/15 14:16:34;;;;;;;33.87;20.53;;;;;;;;;;4431576;32;20326;-55
2021/10/15 14:18:59;;;;;;;44.07;24.43;;;;;;;;;;4422096;32;20370;-57
2021/10/15 14:21:26;;;;;;;55.03;31.20;;;;;;;;;;4432421;32;20295;-55
2021/10/15 14:23:51;;;;;;;40.90;25.03;;;;;;;;;;4432631;32;20549;-55
2021/10/15 14:26:17;;;;;;;63.70;35.80;;;;;;;;;;4434395;32;20255;-55
2021/10/15 14:28:42;;;;;;;74.53;37.30;;;;;;;;;;4433456;32;20319;-55
2021/10/15 14:31:07;;;;;;;43.27;26.13;;;;;;;;;;4434239;32;20471;-57
2021/10/15 14:33:33;;;;;;;54.37;33.20;;;;;;;;;;4432554;32;20515;-56
2021/10/15 14:35:59;;;;;;;66.87;34.73;;;;;;;;;;4434185;32;20280;-57
2021/10/15 14:38:24;;;;;;;72.20;41.73;;;;;;;;;;4431693;32;20335;-56
2021/10/15 14:40:50;;;;;;;62.53;35.20;;;;;;;;;;4433289;32;20301;-56
2021/10/15 14:43:16;;;;;;;60.03;32.80;;;;;;;;;;4432211;32;20339;-56
2021/10/15 14:45:42;;;;;;;57.13;33.83;;;;;;;;;;4434125;32;20283;-54
2021/10/15 14:48:07;;;;;;;52.97;31.07;;;;;;;;;;4432681;32;20263;-55
2021/10/15 14:50:33;;;;;;;55.73;30.57;;;;;;;;;;4431563;32;20358;-56